createdAt,value
2018-02-15T00:00:13.376Z,989.80
2018-02-15T00:01:13.712Z,989.84
2018-02-15T00:03:05.920Z,989.86
2018-02-15T00:04:06.260Z,989.86
2018-02-15T00:05:58.566Z,989.85
2018-02-15T00:06:58.903Z,989.80
2018-02-15T00:08:51.108Z,989.77
2018-02-15T00:09:51.453Z,989.73
2018-02-15T00:11:43.661Z,989.68
2018-02-15T00:12:43.996Z,989.69
2018-02-15T00:14:36.205Z,989.56
2018-02-15T00:15:36.542Z,989.51
2018-02-15T00:17:28.755Z,989.53
2018-02-15T00:18:29.100Z,989.49
2018-02-15T00:20:21.325Z,989.57
2018-02-15T00:21:21.659Z,989.56
2018-02-15T00:23:13.846Z,989.60
2018-02-15T00:24:14.191Z,989.63
2018-02-15T00:26:06.620Z,989.61
2018-02-15T00:27:06.956Z,989.63
2018-02-15T00:28:59.165Z,989.61
2018-02-15T00:29:59.490Z,989.57
2018-02-15T00:31:51.691Z,989.53
2018-02-15T00:32:52.029Z,989.50
2018-02-15T00:34:44.254Z,989.47
2018-02-15T00:35:44.592Z,989.47
2018-02-15T00:37:36.786Z,989.43
2018-02-15T00:38:37.122Z,989.40
2018-02-15T00:40:29.333Z,989.41
2018-02-15T00:41:29.669Z,989.41
2018-02-15T00:43:21.881Z,989.37
2018-02-15T00:44:22.210Z,989.41
2018-02-15T00:46:14.435Z,989.34
2018-02-15T00:47:14.772Z,989.32
2018-02-15T00:49:06.977Z,989.28
2018-02-15T00:50:07.315Z,989.29
2018-02-15T00:51:59.521Z,989.35
2018-02-15T00:52:59.859Z,989.34
2018-02-15T00:54:52.069Z,989.32
2018-02-15T00:55:52.406Z,989.33
2018-02-15T00:57:44.612Z,989.28
2018-02-15T00:58:44.955Z,989.24
2018-02-15T01:00:37.161Z,989.24
2018-02-15T01:01:37.499Z,989.23
2018-02-15T01:03:29.708Z,989.23
2018-02-15T01:04:30.045Z,989.21
2018-02-15T01:08:34.464Z,989.23
2018-02-15T01:09:34.803Z,989.22
2018-02-15T01:11:27.006Z,989.25
2018-02-15T01:12:27.344Z,989.24
2018-02-15T01:14:19.553Z,989.20
2018-02-15T01:15:19.898Z,989.24
2018-02-15T01:17:12.100Z,989.28
2018-02-15T01:18:12.443Z,989.31
2018-02-15T01:20:04.647Z,989.31
2018-02-15T01:21:04.987Z,989.36
2018-02-15T01:22:57.193Z,989.34
2018-02-15T01:23:57.534Z,989.37
2018-02-15T01:25:49.739Z,989.23
2018-02-15T01:26:50.078Z,989.22
2018-02-15T01:28:42.285Z,989.26
2018-02-15T01:29:42.622Z,989.24
2018-02-15T01:31:34.854Z,989.20
2018-02-15T01:32:35.191Z,989.20
2018-02-15T01:34:27.381Z,989.24
2018-02-15T01:35:27.718Z,989.31
2018-02-15T01:37:19.926Z,989.40
2018-02-15T01:38:20.250Z,989.44
2018-02-15T01:40:12.482Z,989.47
2018-02-15T01:41:12.801Z,989.50
2018-02-15T01:43:05.024Z,989.48
2018-02-15T01:44:05.356Z,989.46
2018-02-15T01:45:57.570Z,989.42
2018-02-15T01:46:57.908Z,989.42
2018-02-15T01:48:50.126Z,989.40
2018-02-15T01:49:50.461Z,989.40
2018-02-15T01:51:42.662Z,989.33
2018-02-15T01:52:42.999Z,989.28
2018-02-15T01:54:35.207Z,989.23
2018-02-15T01:55:35.544Z,989.18
2018-02-15T01:57:27.810Z,989.09
2018-02-15T01:58:28.166Z,989.05
2018-02-15T02:00:20.417Z,989.00
2018-02-15T02:01:20.755Z,988.97
2018-02-15T02:03:12.955Z,989.01
2018-02-15T02:04:13.289Z,988.97
2018-02-15T02:06:05.501Z,988.93
2018-02-15T02:07:05.836Z,988.92
2018-02-15T02:08:58.049Z,988.89
2018-02-15T02:09:58.385Z,988.91
2018-02-15T02:11:50.592Z,988.82
2018-02-15T02:12:50.932Z,988.80
2018-02-15T02:14:43.177Z,988.81
2018-02-15T02:15:43.515Z,988.82
2018-02-15T02:17:35.694Z,988.78
2018-02-15T02:18:36.031Z,988.80
2018-02-15T02:20:28.243Z,988.77
2018-02-15T02:21:28.617Z,988.76
2018-02-15T02:23:20.786Z,988.81
2018-02-15T02:24:21.123Z,988.86
2018-02-15T02:26:13.326Z,988.82
2018-02-15T02:27:13.666Z,988.76
2018-02-15T02:29:05.885Z,988.65
2018-02-15T02:30:06.223Z,988.62
2018-02-15T02:31:58.422Z,988.59
2018-02-15T02:32:58.758Z,988.56
2018-02-15T02:34:51.093Z,988.55
2018-02-15T02:35:51.407Z,988.53
2018-02-15T02:37:43.621Z,988.40
2018-02-15T02:38:43.955Z,988.44
2018-02-15T02:40:36.166Z,988.44
2018-02-15T02:41:38.650Z,988.42
2018-02-15T02:43:28.711Z,988.41
2018-02-15T02:44:29.056Z,988.43
2018-02-15T02:46:21.285Z,988.38
2018-02-15T02:47:21.621Z,988.38
2018-02-15T02:49:13.810Z,988.41
2018-02-15T02:50:14.148Z,988.41
2018-02-15T02:52:06.878Z,988.35
2018-02-15T02:53:07.217Z,988.27
2018-02-15T02:54:59.417Z,988.26
2018-02-15T02:55:59.756Z,988.27
2018-02-15T02:57:51.973Z,988.21
2018-02-15T02:58:52.298Z,988.17
2018-02-15T03:00:46.493Z,988.17
2018-02-15T03:01:44.834Z,988.10
2018-02-15T03:02:45.171Z,988.14
2018-02-15T03:03:45.508Z,988.11
2018-02-15T03:04:45.851Z,988.13
2018-02-15T03:05:46.183Z,988.09
2018-02-15T03:06:46.532Z,988.04
2018-02-15T03:07:46.858Z,988.09
2018-02-15T03:08:47.208Z,988.12
2018-02-15T03:09:47.542Z,988.14
2018-02-15T03:10:47.886Z,988.20
2018-02-15T03:11:48.230Z,988.19
2018-02-15T03:12:49.492Z,988.15
2018-02-15T03:13:48.889Z,988.19
2018-02-15T03:14:49.226Z,988.19
2018-02-15T03:15:49.553Z,988.18
2018-02-15T03:16:49.906Z,988.17
2018-02-15T03:17:50.238Z,988.16
2018-02-15T03:18:50.579Z,988.18
2018-02-15T03:19:50.924Z,988.17
2018-02-15T03:20:51.250Z,988.14
2018-02-15T03:21:51.581Z,988.18
2018-02-15T03:22:51.920Z,988.20
2018-02-15T03:23:52.262Z,988.29
2018-02-15T03:24:52.599Z,988.33
2018-02-15T03:25:52.947Z,988.29
2018-02-15T03:26:53.276Z,988.23
2018-02-15T03:27:53.613Z,988.20
2018-02-15T03:28:53.949Z,988.15
2018-02-15T03:29:54.286Z,988.13
2018-02-15T03:30:54.625Z,988.13
2018-02-15T03:31:54.980Z,988.18
2018-02-15T03:32:55.319Z,988.21
2018-02-15T03:33:55.661Z,988.22
2018-02-15T03:34:55.996Z,988.26
2018-02-15T03:35:56.330Z,988.33
2018-02-15T03:36:56.668Z,988.35
2018-02-15T03:37:57.005Z,988.38
2018-02-15T03:38:57.343Z,988.37
2018-02-15T03:39:57.679Z,988.41
2018-02-15T03:40:58.031Z,988.39
2018-02-15T03:41:58.365Z,988.38
2018-02-15T03:42:58.705Z,988.34
2018-02-15T03:43:59.042Z,988.32
2018-02-15T03:44:59.383Z,988.30
2018-02-15T03:45:59.722Z,988.28
2018-02-15T03:47:00.055Z,988.27
2018-02-15T03:48:00.402Z,988.26
2018-02-15T03:49:00.740Z,988.27
2018-02-15T03:50:01.074Z,988.21
2018-02-15T03:51:01.412Z,988.20
2018-02-15T03:52:01.749Z,988.24
2018-02-15T03:53:02.088Z,988.23
2018-02-15T03:54:02.424Z,988.20
2018-02-15T03:55:03.502Z,988.21
2018-02-15T03:56:03.088Z,988.20
2018-02-15T03:57:03.430Z,988.18
2018-02-15T03:58:03.767Z,988.16
2018-02-15T03:59:04.104Z,988.08
2018-02-15T04:00:04.442Z,988.09
2018-02-15T04:01:04.779Z,988.11
2018-02-15T04:02:05.111Z,988.03
2018-02-15T04:03:05.454Z,988.06
2018-02-15T04:04:05.787Z,988.01
2018-02-15T04:05:06.127Z,987.96
2018-02-15T04:06:06.478Z,987.95
2018-02-15T04:07:06.815Z,987.95
2018-02-15T04:08:07.159Z,987.92
2018-02-15T04:09:07.489Z,987.93
2018-02-15T04:10:07.829Z,987.94
2018-02-15T04:11:08.166Z,987.90
2018-02-15T04:12:08.509Z,987.87
2018-02-15T04:13:08.840Z,987.85
2018-02-15T04:14:09.177Z,987.84
2018-02-15T04:15:09.523Z,987.84
2018-02-15T04:16:09.860Z,987.87
2018-02-15T04:17:10.197Z,987.82
2018-02-15T04:18:10.552Z,987.81
2018-02-15T04:19:10.889Z,987.78
2018-02-15T04:20:11.227Z,987.76
2018-02-15T04:21:11.564Z,987.76
2018-02-15T04:22:11.904Z,987.75
2018-02-15T04:23:12.239Z,987.76
2018-02-15T04:24:12.575Z,987.81
2018-02-15T04:25:12.913Z,987.73
2018-02-15T04:26:13.251Z,987.75
2018-02-15T04:27:13.599Z,987.78
2018-02-15T04:28:13.935Z,987.75
2018-02-15T04:29:15.011Z,987.71
2018-02-15T04:30:14.601Z,987.71
2018-02-15T04:31:14.940Z,987.68
2018-02-15T04:32:15.274Z,987.73
2018-02-15T04:33:15.611Z,987.65
2018-02-15T04:34:15.948Z,987.64
2018-02-15T04:35:16.285Z,987.65
2018-02-15T04:36:16.626Z,987.58
2018-02-15T04:37:16.962Z,987.63
2018-02-15T04:38:17.301Z,987.59
2018-02-15T04:39:17.638Z,987.53
2018-02-15T04:40:17.975Z,987.56
2018-02-15T04:41:18.313Z,987.56
2018-02-15T04:42:18.649Z,987.51
2018-02-15T04:43:19.514Z,987.52
2018-02-15T04:44:19.305Z,987.57
2018-02-15T04:45:19.649Z,987.51
2018-02-15T04:46:19.985Z,987.52
2018-02-15T04:47:20.322Z,987.57
2018-02-15T04:48:20.659Z,987.55
2018-02-15T04:49:20.996Z,987.53
2018-02-15T04:50:21.332Z,987.49
2018-02-15T04:51:21.669Z,987.53
2018-02-15T04:52:22.008Z,987.52
2018-02-15T04:53:22.343Z,987.53
2018-02-15T04:54:22.694Z,987.57
2018-02-15T04:55:23.040Z,987.57
2018-02-15T04:56:23.370Z,987.61
2018-02-15T04:57:24.518Z,987.58
2018-02-15T04:58:24.025Z,987.60
2018-02-15T04:59:24.365Z,987.64
2018-02-15T05:00:24.701Z,987.62
2018-02-15T05:01:25.038Z,987.62
2018-02-15T05:02:25.375Z,987.65
2018-02-15T05:03:25.712Z,987.66
2018-02-15T05:04:26.050Z,987.63
2018-02-15T05:05:26.385Z,987.61
2018-02-15T05:06:26.724Z,987.62
2018-02-15T05:07:27.061Z,987.60
2018-02-15T05:08:27.402Z,987.54
2018-02-15T05:09:27.735Z,987.54
2018-02-15T05:10:28.072Z,987.52
2018-02-15T05:11:28.410Z,987.52
2018-02-15T05:12:28.752Z,987.52
2018-02-15T05:13:29.088Z,987.53
2018-02-15T05:14:29.425Z,987.50
2018-02-15T05:15:30.522Z,987.42
2018-02-15T05:16:30.084Z,987.41
2018-02-15T05:17:30.422Z,987.38
2018-02-15T05:18:30.759Z,987.37
2018-02-15T05:19:31.092Z,987.36
2018-02-15T05:20:31.434Z,987.45
2018-02-15T05:21:31.770Z,987.48
2018-02-15T05:22:32.111Z,987.51
2018-02-15T05:23:32.448Z,987.56
2018-02-15T05:24:32.782Z,987.52
2018-02-15T05:25:34.025Z,987.53
2018-02-15T05:26:33.437Z,987.62
2018-02-15T05:27:33.775Z,987.59
2018-02-15T05:28:34.111Z,987.62
2018-02-15T05:29:34.448Z,987.64
2018-02-15T05:30:34.792Z,987.65
2018-02-15T05:31:35.480Z,987.65
2018-02-15T05:32:35.361Z,987.67
2018-02-15T05:33:35.700Z,987.64
2018-02-15T05:34:36.034Z,987.60
2018-02-15T05:35:36.372Z,987.60
2018-02-15T05:36:36.708Z,987.53
2018-02-15T05:37:37.048Z,987.50
2018-02-15T05:38:37.384Z,987.54
2018-02-15T05:39:37.721Z,987.51
2018-02-15T05:40:38.058Z,987.57
2018-02-15T05:41:38.395Z,987.53
2018-02-15T05:42:38.732Z,987.49
2018-02-15T05:43:39.072Z,987.45
2018-02-15T05:44:39.411Z,987.45
2018-02-15T05:45:39.743Z,987.49
2018-02-15T05:46:40.085Z,987.48
2018-02-15T05:47:40.413Z,987.46
2018-02-15T05:48:40.757Z,987.43
2018-02-15T05:49:41.094Z,987.43
2018-02-15T05:50:41.430Z,987.42
2018-02-15T05:51:41.768Z,987.39
2018-02-15T05:52:42.106Z,987.38
2018-02-15T05:53:42.446Z,987.46
2018-02-15T05:54:42.785Z,987.47
2018-02-15T05:55:43.121Z,987.48
2018-02-15T05:56:43.458Z,987.49
2018-02-15T05:57:43.794Z,987.51
2018-02-15T05:58:44.134Z,987.54
2018-02-15T05:59:44.475Z,987.56
2018-02-15T06:00:44.798Z,987.62
2018-02-15T06:01:45.145Z,987.63
2018-02-15T06:02:45.482Z,987.65
2018-02-15T06:03:45.818Z,987.59
2018-02-15T06:04:46.163Z,987.59
2018-02-15T06:05:46.496Z,987.56
2018-02-15T06:06:46.838Z,987.64
2018-02-15T06:07:47.175Z,987.67
2018-02-15T06:08:47.511Z,987.73
2018-02-15T06:09:48.558Z,987.67
2018-02-15T06:10:48.172Z,987.68
2018-02-15T06:11:48.509Z,987.69
2018-02-15T06:12:48.847Z,987.66
2018-02-15T06:13:49.184Z,987.63
2018-02-15T06:14:49.521Z,987.57
2018-02-15T06:15:49.857Z,987.56
2018-02-15T06:16:50.207Z,987.59
2018-02-15T06:17:50.534Z,987.53
2018-02-15T06:18:50.871Z,987.58
2018-02-15T06:19:51.208Z,987.53
2018-02-15T06:20:51.546Z,987.58
2018-02-15T06:21:51.884Z,987.54
2018-02-15T06:22:52.214Z,987.50
2018-02-15T06:23:52.557Z,987.50
2018-02-15T06:24:52.895Z,987.46
2018-02-15T06:25:53.236Z,987.37
2018-02-15T06:26:53.569Z,987.35
2018-02-15T06:27:53.907Z,987.38
2018-02-15T06:28:54.244Z,987.33
2018-02-15T06:29:54.585Z,987.32
2018-02-15T06:30:54.914Z,987.35
2018-02-15T06:31:55.256Z,987.32
2018-02-15T06:32:55.601Z,987.29
2018-02-15T06:33:55.932Z,987.31
2018-02-15T06:34:56.268Z,987.30
2018-02-15T06:35:56.607Z,987.33
2018-02-15T06:36:56.944Z,987.33
2018-02-15T06:37:57.288Z,987.33
2018-02-15T06:38:57.626Z,987.34
2018-02-15T06:39:57.962Z,987.32
2018-02-15T06:40:58.308Z,987.31
2018-02-15T06:41:58.674Z,987.34
2018-02-15T06:42:58.976Z,987.32
2018-02-15T06:44:00.043Z,987.31
2018-02-15T06:44:59.642Z,987.37
2018-02-15T06:45:59.981Z,987.38
2018-02-15T06:47:00.329Z,987.41
2018-02-15T06:48:00.659Z,987.43
2018-02-15T06:49:00.998Z,987.45
2018-02-15T06:50:01.334Z,987.46
2018-02-15T06:51:01.671Z,987.44
2018-02-15T06:52:02.012Z,987.47
2018-02-15T06:53:02.345Z,987.41
2018-02-15T06:54:02.684Z,987.39
2018-02-15T06:55:03.556Z,987.41
2018-02-15T06:56:03.455Z,987.43
2018-02-15T06:57:03.793Z,987.45
2018-02-15T06:58:04.130Z,987.45
2018-02-15T06:59:04.466Z,987.45
2018-02-15T07:00:04.804Z,987.33
2018-02-15T07:01:05.192Z,987.40
2018-02-15T07:02:05.481Z,987.44
2018-02-15T07:03:05.823Z,987.35
2018-02-15T07:04:06.156Z,987.34
2018-02-15T07:05:06.497Z,987.33
2018-02-15T07:06:06.841Z,987.31
2018-02-15T07:07:07.170Z,987.36
2018-02-15T07:08:07.503Z,987.37
2018-02-15T07:09:07.845Z,987.33
2018-02-15T07:10:08.184Z,987.38
2018-02-15T07:11:08.520Z,987.36
2018-02-15T07:12:08.877Z,987.31
2018-02-15T07:13:09.221Z,987.36
2018-02-15T07:14:09.551Z,987.32
2018-02-15T07:15:09.885Z,987.32
2018-02-15T07:16:10.223Z,987.31
2018-02-15T07:17:10.561Z,987.28
2018-02-15T07:18:10.900Z,987.25
2018-02-15T07:19:11.236Z,987.23
2018-02-15T07:20:11.585Z,987.22
2018-02-15T07:21:11.915Z,987.19
2018-02-15T07:22:12.258Z,987.21
2018-02-15T07:23:12.601Z,987.20
2018-02-15T07:24:12.949Z,987.26
2018-02-15T07:25:13.287Z,987.25
2018-02-15T07:26:13.626Z,987.28
2018-02-15T07:27:13.965Z,987.31
2018-02-15T07:28:15.056Z,987.33
2018-02-15T07:29:15.558Z,987.21
2018-02-15T07:30:15.087Z,987.23
2018-02-15T07:31:15.425Z,987.30
2018-02-15T07:32:15.762Z,987.21
2018-02-15T07:33:16.102Z,987.28
2018-02-15T07:34:16.442Z,987.28
2018-02-15T07:35:16.777Z,987.27
2018-02-15T07:36:17.117Z,987.25
2018-02-15T07:37:17.451Z,987.20
2018-02-15T07:38:17.800Z,987.19
2018-02-15T07:39:18.134Z,987.19
2018-02-15T07:40:19.056Z,987.21
2018-02-15T07:41:19.559Z,987.19
2018-02-15T07:42:19.226Z,987.14
2018-02-15T07:43:19.571Z,987.23
2018-02-15T07:44:19.930Z,987.20
2018-02-15T07:45:20.247Z,987.22
2018-02-15T07:46:20.595Z,987.20
2018-02-15T07:47:20.935Z,987.22
2018-02-15T07:48:22.059Z,987.22
2018-02-15T07:49:21.599Z,987.22
2018-02-15T07:50:21.924Z,987.28
2018-02-15T07:51:22.273Z,987.19
2018-02-15T07:52:22.611Z,987.21
2018-02-15T07:53:22.962Z,987.20
2018-02-15T07:54:23.293Z,987.19
2018-02-15T07:55:23.625Z,987.24
2018-02-15T07:56:23.967Z,987.21
2018-02-15T07:57:24.302Z,987.26
2018-02-15T07:58:24.642Z,987.24
2018-02-15T07:59:24.987Z,987.27
2018-02-15T08:00:25.316Z,987.22
2018-02-15T08:01:26.561Z,987.25
2018-02-15T08:02:26.562Z,987.22
2018-02-15T08:03:26.306Z,987.22
2018-02-15T08:04:27.564Z,987.24
2018-02-15T08:05:27.006Z,987.19
2018-02-15T08:06:27.344Z,987.22
2018-02-15T08:07:27.681Z,987.22
2018-02-15T08:08:28.016Z,987.24
2018-02-15T08:09:28.362Z,987.28
2018-02-15T08:10:28.694Z,987.28
2018-02-15T08:11:29.029Z,987.31
2018-02-15T08:12:29.367Z,987.25
2018-02-15T08:13:29.706Z,987.28
2018-02-15T08:14:30.045Z,987.28
2018-02-15T08:15:30.406Z,987.18
2018-02-15T08:16:30.748Z,987.15
2018-02-15T08:17:31.083Z,987.22
2018-02-15T08:18:31.420Z,987.21
2018-02-15T08:19:31.757Z,987.27
2018-02-15T08:20:32.565Z,987.25
2018-02-15T08:21:32.426Z,987.26
2018-02-15T08:22:32.764Z,987.24
2018-02-15T08:23:33.128Z,987.25
2018-02-15T08:24:33.468Z,987.24
2018-02-15T08:25:33.805Z,987.24
2018-02-15T08:26:34.142Z,987.23
2018-02-15T08:27:34.488Z,987.21
2018-02-15T08:28:34.822Z,987.17
2018-02-15T08:29:35.159Z,987.16
2018-02-15T08:30:35.496Z,987.21
2018-02-15T08:31:35.834Z,987.20
2018-02-15T08:32:36.172Z,987.19
2018-02-15T08:33:36.513Z,987.21
2018-02-15T08:34:36.846Z,987.22
2018-02-15T08:35:37.184Z,987.20
2018-02-15T08:36:37.525Z,987.21
2018-02-15T08:37:37.860Z,987.18
2018-02-15T08:38:39.070Z,987.22
2018-02-15T08:39:38.532Z,987.21
2018-02-15T08:40:38.875Z,987.19
2018-02-15T08:41:39.206Z,987.25
2018-02-15T08:42:39.545Z,987.24
2018-02-15T08:43:39.892Z,987.23
2018-02-15T08:44:40.218Z,987.29
2018-02-15T08:45:40.555Z,987.23
2018-02-15T08:46:40.902Z,987.24
2018-02-15T08:47:41.233Z,987.22
2018-02-15T08:48:42.073Z,987.25
2018-02-15T08:49:41.897Z,987.26
2018-02-15T08:50:42.221Z,987.30
2018-02-15T08:51:42.580Z,987.30
2018-02-15T08:52:42.907Z,987.27
2018-02-15T08:53:43.232Z,987.28
2018-02-15T08:54:43.581Z,987.29
2018-02-15T08:55:43.916Z,987.29
2018-02-15T08:56:44.256Z,987.29
2018-02-15T08:57:44.596Z,987.29
2018-02-15T08:58:44.932Z,987.26
2018-02-15T08:59:45.273Z,987.34
2018-02-15T09:00:45.608Z,987.24
2018-02-15T09:01:45.936Z,987.29
2018-02-15T09:02:46.283Z,987.29
2018-02-15T09:03:46.626Z,987.30
2018-02-15T09:04:46.968Z,987.23
2018-02-15T09:05:47.299Z,987.29
2018-02-15T09:06:47.639Z,987.24
2018-02-15T09:07:47.976Z,987.20
2018-02-15T09:08:48.315Z,987.20
2018-02-15T09:09:48.647Z,987.15
2018-02-15T09:10:48.988Z,987.12
2018-02-15T09:11:49.333Z,987.14
2018-02-15T09:12:49.663Z,987.14
2018-02-15T09:13:50.019Z,987.13
2018-02-15T09:14:50.356Z,987.07
2018-02-15T09:15:50.694Z,987.08
2018-02-15T09:16:51.613Z,987.07
2018-02-15T09:17:51.354Z,987.02
2018-02-15T09:18:51.686Z,987.03
2018-02-15T09:19:52.031Z,987.11
2018-02-15T09:20:53.170Z,987.05
2018-02-15T09:21:52.593Z,987.06
2018-02-15T09:22:52.930Z,986.94
2018-02-15T09:23:53.270Z,986.96
2018-02-15T09:24:54.581Z,986.94
2018-02-15T09:25:53.938Z,986.99
2018-02-15T09:26:54.276Z,986.95
2018-02-15T09:27:55.177Z,986.98
2018-02-15T09:28:54.826Z,986.92
2018-02-15T09:29:55.167Z,986.87
2018-02-15T09:30:55.498Z,986.89
2018-02-15T09:31:55.837Z,986.98
2018-02-15T09:32:56.169Z,986.97
2018-02-15T09:33:56.518Z,986.98
2018-02-15T09:34:56.864Z,986.99
2018-02-15T09:35:57.203Z,986.99
2018-02-15T09:36:57.540Z,986.97
2018-02-15T09:37:57.877Z,986.90
2018-02-15T09:38:58.235Z,987.00
2018-02-15T09:39:58.574Z,986.96
2018-02-15T09:40:58.913Z,986.96
2018-02-15T09:41:59.248Z,986.96
2018-02-15T09:42:59.588Z,987.06
2018-02-15T09:43:59.936Z,987.00
2018-02-15T09:45:00.259Z,986.96
2018-02-15T09:46:00.606Z,986.98
2018-02-15T09:47:00.937Z,986.97
2018-02-15T09:48:01.275Z,987.03
2018-02-15T09:49:01.612Z,987.02
2018-02-15T09:50:01.952Z,987.01
2018-02-15T09:51:03.089Z,986.98
2018-02-15T09:52:02.531Z,987.02
2018-02-15T09:53:02.867Z,986.97
2018-02-15T09:54:03.205Z,986.98
2018-02-15T09:55:03.548Z,986.97
2018-02-15T09:56:03.884Z,986.96
2018-02-15T09:57:04.225Z,986.93
2018-02-15T09:59:44.159Z,986.87
2018-02-15T10:00:05.221Z,986.85
2018-02-15T10:01:06.090Z,986.90
2018-02-15T10:02:06.590Z,986.84
2018-02-15T10:03:06.215Z,986.78
2018-02-15T10:04:06.556Z,986.81
2018-02-15T10:05:07.591Z,986.82
2018-02-15T10:06:07.215Z,986.85
2018-02-15T10:07:08.093Z,986.78
2018-02-15T10:08:07.882Z,986.80
2018-02-15T10:09:08.222Z,986.81
2018-02-15T10:10:08.560Z,986.81
2018-02-15T10:11:08.897Z,986.79
2018-02-15T10:12:10.092Z,986.76
2018-02-15T10:13:09.566Z,986.77
2018-02-15T10:14:09.904Z,986.81
2018-02-15T10:15:11.101Z,986.74
2018-02-15T10:16:11.093Z,986.83
2018-02-15T10:17:10.900Z,986.74
2018-02-15T10:18:11.239Z,986.74
2018-02-15T10:19:11.576Z,986.74
2018-02-15T10:20:11.911Z,986.68
2018-02-15T10:21:12.254Z,986.73
2018-02-15T10:22:12.591Z,986.79
2018-02-15T10:23:12.929Z,986.71
2018-02-15T10:24:13.267Z,986.73
2018-02-15T10:25:13.604Z,986.69
2018-02-15T10:26:13.946Z,986.69
2018-02-15T10:27:14.286Z,986.76
2018-02-15T10:28:15.098Z,986.70
2018-02-15T10:29:14.997Z,986.68
2018-02-15T10:30:15.336Z,986.65
2018-02-15T10:31:15.673Z,986.61
2018-02-15T10:32:16.031Z,986.56
2018-02-15T10:33:16.364Z,986.52
2018-02-15T10:34:16.697Z,986.52
2018-02-15T10:35:17.036Z,986.52
2018-02-15T10:36:17.370Z,986.53
2018-02-15T10:37:17.709Z,986.52
2018-02-15T10:38:18.049Z,986.45
2018-02-15T10:39:19.101Z,986.47
2018-02-15T10:40:18.716Z,986.45
2018-02-15T10:41:19.057Z,986.47
2018-02-15T10:42:19.397Z,986.49
2018-02-15T10:43:19.729Z,986.45
2018-02-15T10:44:20.074Z,986.47
2018-02-15T10:45:20.417Z,986.46
2018-02-15T10:46:20.747Z,986.40
2018-02-15T10:47:21.603Z,986.39
2018-02-15T10:48:21.409Z,986.43
2018-02-15T10:49:21.747Z,986.33
2018-02-15T10:50:22.094Z,986.31
2018-02-15T10:51:22.423Z,986.33
2018-02-15T10:52:22.760Z,986.33
2018-02-15T10:53:23.099Z,986.36
2018-02-15T10:54:23.438Z,986.32
2018-02-15T10:55:23.770Z,986.33
2018-02-15T10:56:24.605Z,986.30
2018-02-15T10:57:25.104Z,986.30
2018-02-15T10:58:25.603Z,986.34
2018-02-15T10:59:25.074Z,986.32
2018-02-15T11:00:25.428Z,986.30
2018-02-15T11:01:25.760Z,986.30
2018-02-15T11:02:26.105Z,986.25
2018-02-15T11:03:26.443Z,986.28
2018-02-15T11:04:26.779Z,986.29
2018-02-15T11:05:27.116Z,986.34
2018-02-15T11:06:28.200Z,986.31
2018-02-15T11:07:27.850Z,986.39
2018-02-15T11:08:28.197Z,986.37
2018-02-15T11:09:28.535Z,986.31
2018-02-15T11:10:28.867Z,986.36
2018-02-15T11:11:29.210Z,986.30
2018-02-15T11:12:29.548Z,986.34
2018-02-15T11:13:29.885Z,986.33
2018-02-15T11:14:30.221Z,986.33
2018-02-15T11:15:30.558Z,986.31
2018-02-15T11:16:30.896Z,986.29
2018-02-15T11:17:31.234Z,986.33
2018-02-15T11:18:31.572Z,986.29
2018-02-15T11:19:31.909Z,986.25
2018-02-15T11:20:32.248Z,986.23
2018-02-15T11:21:32.584Z,986.23
2018-02-15T11:22:32.926Z,986.13
2018-02-15T11:23:33.265Z,986.12
2018-02-15T11:24:33.597Z,986.06
2018-02-15T11:25:33.942Z,985.97
2018-02-15T11:26:34.274Z,986.05
2018-02-15T11:27:34.616Z,986.06
2018-02-15T11:28:35.611Z,986.03
2018-02-15T11:29:35.285Z,986.05
2018-02-15T11:30:35.623Z,986.13
2018-02-15T11:31:35.960Z,986.03
2018-02-15T11:32:36.302Z,986.00
2018-02-15T11:33:36.651Z,986.04
2018-02-15T11:34:36.992Z,986.06
2018-02-15T11:35:37.316Z,986.04
2018-02-15T11:36:37.665Z,986.01
2018-02-15T11:37:38.001Z,986.07
2018-02-15T11:38:38.342Z,986.12
2018-02-15T11:39:38.676Z,986.09
2018-02-15T11:40:39.012Z,986.17
2018-02-15T11:41:39.358Z,986.08
2018-02-15T11:42:39.696Z,986.15
2018-02-15T11:43:40.039Z,986.19
2018-02-15T11:44:40.374Z,986.17
2018-02-15T11:45:40.739Z,986.19
2018-02-15T11:46:41.048Z,986.18
2018-02-15T11:47:41.407Z,986.11
2018-02-15T11:48:42.614Z,986.11
2018-02-15T11:49:42.622Z,986.11
2018-02-15T11:50:43.116Z,986.08
2018-02-15T11:51:42.717Z,986.05
2018-02-15T11:52:43.720Z,986.03
2018-02-15T11:53:43.360Z,986.00
2018-02-15T11:54:43.693Z,986.01
2018-02-15T11:55:44.617Z,986.01
2018-02-15T11:56:44.369Z,985.95
2018-02-15T11:57:44.717Z,985.91
2018-02-15T11:58:45.056Z,985.91
2018-02-15T11:59:46.118Z,985.90
2018-02-15T12:00:46.619Z,985.86
2018-02-15T12:01:46.058Z,985.95
2018-02-15T12:02:46.437Z,985.91
2018-02-15T12:03:46.777Z,985.90
2018-02-15T12:04:47.127Z,985.92
2018-02-15T12:05:47.454Z,985.97
2018-02-15T12:06:47.795Z,985.95
2018-02-15T12:07:48.131Z,986.00
2018-02-15T12:08:48.472Z,986.03
2018-02-15T12:09:48.811Z,986.05
2018-02-15T12:10:49.148Z,986.06
2018-02-15T12:11:49.482Z,986.12
2018-02-15T12:12:49.823Z,986.08
2018-02-15T12:13:50.160Z,986.08
2018-02-15T12:14:50.501Z,986.14
2018-02-15T12:15:50.836Z,986.13
2018-02-15T12:16:51.172Z,986.11
2018-02-15T12:17:51.505Z,986.16
2018-02-15T12:18:51.855Z,986.25
2018-02-15T12:19:52.200Z,986.22
2018-02-15T12:20:52.540Z,986.23
2018-02-15T12:21:52.881Z,986.21
2018-02-15T12:22:53.211Z,986.23
2018-02-15T12:23:53.556Z,986.26
2018-02-15T12:24:53.892Z,986.23
2018-02-15T12:25:54.229Z,986.24
2018-02-15T12:26:54.568Z,986.22
2018-02-15T12:27:54.911Z,986.31
2018-02-15T12:28:56.129Z,986.27
2018-02-15T12:29:56.125Z,986.18
2018-02-15T12:30:55.934Z,986.21
2018-02-15T12:31:57.125Z,986.29
2018-02-15T12:32:57.125Z,986.19
2018-02-15T12:33:57.628Z,986.18
2018-02-15T12:34:57.255Z,986.12
2018-02-15T12:35:57.593Z,986.10
2018-02-15T12:36:58.631Z,986.10
2018-02-15T12:37:58.266Z,986.02
2018-02-15T12:38:59.131Z,986.02
2018-02-15T12:39:58.991Z,986.04
2018-02-15T12:40:59.329Z,986.04
2018-02-15T12:41:59.669Z,986.05
2018-02-15T12:43:00.050Z,986.19
2018-02-15T12:44:01.129Z,986.13
2018-02-15T12:45:00.709Z,986.11
2018-02-15T12:46:01.046Z,986.14
2018-02-15T12:47:01.385Z,986.14
2018-02-15T12:48:02.728Z,986.12
2018-02-15T12:49:02.146Z,986.09
2018-02-15T12:50:02.484Z,986.08
2018-02-15T12:51:02.837Z,986.11
2018-02-15T12:52:04.130Z,986.13
2018-02-15T12:53:04.131Z,986.18
2018-02-15T12:54:03.856Z,986.19
2018-02-15T12:55:04.159Z,986.15
2018-02-15T12:56:04.499Z,986.19
2018-02-15T12:57:05.631Z,986.17
2018-02-15T12:58:05.158Z,986.17
2018-02-15T12:59:05.505Z,986.23
2018-02-15T13:00:05.842Z,986.10
2018-02-15T13:01:06.168Z,986.14
2018-02-15T13:04:37.428Z,986.19
2018-02-15T13:05:37.765Z,986.19
2018-02-15T13:07:29.992Z,986.26
2018-02-15T13:08:30.324Z,986.25
2018-02-15T13:10:22.553Z,986.34
2018-02-15T13:11:25.025Z,986.39
2018-02-15T13:13:15.078Z,986.26
2018-02-15T13:14:15.413Z,986.26
2018-02-15T13:16:07.629Z,986.27
2018-02-15T13:17:07.969Z,986.23
2018-02-15T13:19:00.212Z,986.19
2018-02-15T13:21:12.474Z,986.18
2018-02-15T13:22:12.805Z,986.07
2018-02-15T13:24:05.075Z,986.13
2018-02-15T13:25:05.421Z,986.16
2018-02-15T13:26:57.689Z,986.20
2018-02-15T13:27:58.025Z,986.21
2018-02-15T13:29:50.224Z,986.18
2018-02-15T13:30:50.552Z,986.18
2018-02-15T13:32:42.780Z,986.16
2018-02-15T13:33:43.121Z,986.21
2018-02-15T13:37:47.509Z,986.15
2018-02-15T13:38:47.857Z,986.22
2018-02-15T13:40:40.171Z,986.17
2018-02-15T13:41:40.516Z,986.15
2018-02-15T13:43:32.708Z,986.12
2018-02-15T13:44:33.047Z,986.01
2018-02-15T13:46:25.265Z,986.01